createdAt,value
2023-01-13T00:00:42.709Z,10.42
2023-01-13T00:01:42.629Z,10.43
2023-01-13T00:02:42.632Z,10.44
2023-01-13T00:03:42.592Z,10.43
2023-01-13T00:04:42.617Z,10.44
2023-01-13T00:05:42.559Z,10.43
2023-01-13T00:06:42.616Z,10.44
2023-01-13T00:07:42.536Z,10.44
2023-01-13T00:08:42.538Z,10.43
2023-01-13T00:09:42.537Z,10.44
2023-01-13T00:10:42.506Z,10.44
2023-01-13T00:11:42.489Z,10.43
2023-01-13T00:12:42.475Z,10.44
2023-01-13T00:13:42.490Z,10.44
2023-01-13T00:14:42.585Z,10.44
2023-01-13T00:15:43.145Z,10.44
2023-01-13T00:16:42.456Z,10.43
2023-01-13T00:17:42.439Z,10.44
2023-01-13T00:18:42.408Z,10.44
2023-01-13T00:19:42.398Z,10.43
2023-01-13T00:20:42.408Z,10.44
2023-01-13T00:21:42.388Z,10.43
2023-01-13T00:22:42.398Z,10.43
2023-01-13T00:23:42.364Z,10.44
2023-01-13T00:24:42.346Z,10.44
2023-01-13T00:25:42.351Z,10.46
2023-01-13T00:26:42.352Z,10.47
2023-01-13T00:27:42.363Z,10.46
2023-01-13T00:28:42.319Z,10.46
2023-01-13T00:29:42.316Z,10.46
2023-01-13T00:30:42.286Z,10.46
2023-01-13T00:31:42.278Z,10.47
2023-01-13T00:32:42.306Z,10.46
2023-01-13T00:33:42.261Z,10.47
2023-01-13T00:34:42.261Z,10.51
2023-01-13T00:35:42.245Z,10.47
2023-01-13T00:36:42.259Z,10.47
2023-01-13T00:37:42.206Z,10.47
2023-01-13T00:38:42.214Z,10.47
2023-01-13T00:39:42.202Z,10.46
2023-01-13T00:40:42.184Z,10.47
2023-01-13T00:41:42.155Z,10.46
2023-01-13T00:42:42.144Z,10.51
2023-01-13T00:43:42.138Z,10.47
2023-01-13T00:44:42.131Z,10.46
2023-01-13T00:45:42.145Z,10.47
2023-01-13T00:46:42.161Z,10.51
2023-01-13T00:47:42.113Z,10.47
2023-01-13T00:48:42.071Z,10.51
2023-01-13T00:49:42.118Z,10.51
2023-01-13T00:50:42.092Z,10.51
2023-01-13T00:51:42.072Z,10.51
2023-01-13T00:52:42.477Z,10.51
2023-01-13T00:53:42.038Z,10.51
2023-01-13T00:54:42.011Z,10.51
2023-01-13T00:55:42.001Z,10.47
2023-01-13T00:56:41.991Z,10.51
2023-01-13T00:57:42.002Z,10.51
2023-01-13T00:58:42.000Z,10.51
2023-01-13T00:59:41.957Z,10.51
2023-01-13T01:00:41.999Z,10.51
2023-01-13T01:01:42.156Z,10.51
2023-01-13T01:02:41.991Z,10.51
2023-01-13T01:03:43.391Z,10.52
2023-01-13T01:04:41.906Z,10.51
2023-01-13T01:05:41.905Z,10.51
2023-01-13T01:06:43.341Z,10.51
2023-01-13T01:07:41.891Z,10.52
2023-01-13T01:08:41.872Z,10.51
2023-01-13T01:09:41.862Z,10.51
2023-01-13T01:10:41.846Z,10.52
2023-01-13T01:11:41.823Z,10.52
2023-01-13T01:12:41.816Z,10.52
2023-01-13T01:13:41.802Z,10.52
2023-01-13T01:14:41.812Z,10.53
2023-01-13T01:15:41.803Z,10.53
2023-01-13T01:16:41.777Z,10.52
2023-01-13T01:17:41.762Z,10.52
2023-01-13T01:18:41.767Z,10.52
2023-01-13T01:19:41.733Z,10.53
2023-01-13T01:20:41.739Z,10.53
2023-01-13T01:21:41.726Z,10.53
2023-01-13T01:22:41.716Z,10.53
2023-01-13T01:23:41.687Z,10.52
2023-01-13T01:24:41.682Z,10.52
2023-01-13T01:25:41.669Z,10.55
2023-01-13T01:26:41.674Z,10.55
2023-01-13T01:27:41.648Z,10.55
2023-01-13T01:28:41.635Z,10.56
2023-01-13T01:29:41.620Z,10.53
2023-01-13T01:30:41.606Z,10.55
2023-01-13T01:31:41.672Z,10.56
2023-01-13T01:32:41.600Z,10.56
2023-01-13T01:33:41.587Z,10.56
2023-01-13T01:34:41.592Z,10.56
2023-01-13T01:35:41.649Z,10.58
2023-01-13T01:36:41.566Z,10.59
2023-01-13T01:37:41.542Z,10.58
2023-01-13T01:38:41.582Z,10.59
2023-01-13T01:39:41.520Z,10.60
2023-01-13T01:40:41.514Z,10.60
2023-01-13T01:41:41.489Z,10.59
2023-01-13T01:42:41.499Z,10.59
2023-01-13T01:43:41.464Z,10.60
2023-01-13T01:44:41.476Z,10.59
2023-01-13T01:45:41.447Z,10.59
2023-01-13T01:46:41.493Z,10.58
2023-01-13T01:47:41.436Z,10.59
2023-01-13T01:48:41.427Z,10.58
2023-01-13T01:49:41.434Z,10.58
2023-01-13T01:50:41.397Z,10.59
2023-01-13T01:51:41.380Z,10.58
2023-01-13T01:52:41.380Z,10.58
2023-01-13T01:53:41.379Z,10.56
2023-01-13T01:54:41.359Z,10.58
2023-01-13T01:55:41.336Z,10.59
2023-01-13T01:56:41.340Z,10.58
2023-01-13T01:57:41.316Z,10.59
2023-01-13T01:58:41.299Z,10.59
2023-01-13T01:59:41.309Z,10.59
2023-01-13T02:00:41.371Z,10.59
2023-01-13T02:01:41.376Z,10.58
2023-01-13T02:02:41.374Z,10.58
2023-01-13T02:03:48.293Z,10.58
2023-01-13T02:04:41.255Z,10.58
2023-01-13T02:05:41.245Z,10.59
2023-01-13T02:06:41.223Z,10.59
2023-01-13T02:07:41.257Z,10.60
2023-01-13T02:08:42.147Z,10.60
2023-01-13T02:09:41.200Z,10.62
2023-01-13T02:10:41.162Z,10.60
2023-01-13T02:11:41.169Z,10.60
2023-01-13T02:12:41.158Z,10.58
2023-01-13T02:13:41.451Z,10.58
2023-01-13T02:14:41.203Z,10.58
2023-01-13T02:15:41.131Z,10.53
2023-01-13T02:16:41.148Z,10.52
2023-01-13T02:17:41.104Z,10.51
2023-01-13T02:18:41.083Z,10.46
2023-01-13T02:19:41.074Z,10.46
2023-01-13T02:20:41.083Z,10.43
2023-01-13T02:21:41.060Z,10.42
2023-01-13T02:22:41.044Z,10.43
2023-01-13T02:23:41.032Z,10.40
2023-01-13T02:24:41.069Z,10.40
2023-01-13T02:25:41.083Z,10.39
2023-01-13T02:26:41.012Z,10.37
2023-01-13T02:27:40.992Z,10.36
2023-01-13T02:28:40.975Z,10.33
2023-01-13T02:29:40.980Z,10.34
2023-01-13T02:30:40.960Z,10.32
2023-01-13T02:31:40.994Z,10.28
2023-01-13T02:32:41.887Z,10.25
2023-01-13T02:33:40.928Z,10.24
2023-01-13T02:34:40.929Z,10.22
2023-01-13T02:35:40.910Z,10.24
2023-01-13T02:36:40.914Z,10.24
2023-01-13T02:37:40.881Z,10.24
2023-01-13T02:38:40.877Z,10.22
2023-01-13T02:39:40.860Z,10.22
2023-01-13T02:40:40.858Z,10.22
2023-01-13T02:41:40.843Z,10.22
2023-01-13T02:42:40.824Z,10.24
2023-01-13T02:43:40.810Z,10.24
2023-01-13T02:44:40.805Z,10.25
2023-01-13T02:45:40.824Z,10.24
2023-01-13T02:46:40.808Z,10.22
2023-01-13T02:47:40.771Z,10.22
2023-01-13T02:48:40.793Z,10.21
2023-01-13T02:49:40.751Z,10.21
2023-01-13T02:50:40.766Z,10.19
2023-01-13T02:51:40.733Z,10.21
2023-01-13T02:52:40.721Z,10.21
2023-01-13T02:53:40.735Z,10.21
2023-01-13T02:54:40.688Z,10.21
2023-01-13T02:55:41.624Z,10.21
2023-01-13T02:56:40.705Z,10.21
2023-01-13T02:57:40.663Z,10.21
2023-01-13T02:58:40.662Z,10.22
2023-01-13T02:59:40.650Z,10.22
2023-01-13T03:00:40.657Z,10.26
2023-01-13T03:01:40.819Z,10.25
2023-01-13T03:02:40.707Z,10.26
2023-01-13T03:03:40.632Z,10.24
2023-01-13T03:04:40.615Z,10.25
2023-01-13T03:05:40.578Z,10.25
2023-01-13T03:06:40.612Z,10.25
2023-01-13T03:07:40.595Z,10.25
2023-01-13T03:08:40.566Z,10.26
2023-01-13T03:09:40.539Z,10.26
2023-01-13T03:10:40.546Z,10.26
2023-01-13T03:11:40.511Z,10.24
2023-01-13T03:12:40.539Z,10.25
2023-01-13T03:13:40.509Z,10.24
2023-01-13T03:14:40.501Z,10.24
2023-01-13T03:15:40.484Z,10.22
2023-01-13T03:16:40.511Z,10.21
2023-01-13T03:17:41.414Z,10.21
2023-01-13T03:18:40.485Z,10.18
2023-01-13T03:19:40.423Z,10.18
2023-01-13T03:20:40.441Z,10.15
2023-01-13T03:21:40.423Z,10.14
2023-01-13T03:22:40.431Z,10.12
2023-01-13T03:23:40.381Z,10.09
2023-01-13T03:24:40.388Z,10.04
2023-01-13T03:25:40.396Z,10.01
2023-01-13T03:26:40.741Z,10.03
2023-01-13T03:27:40.359Z,9.99
2023-01-13T03:28:40.363Z,10.00
2023-01-13T03:29:40.325Z,10.00
2023-01-13T03:30:40.359Z,10.00
2023-01-13T03:31:40.294Z,10.00
2023-01-13T03:32:40.315Z,9.99
2023-01-13T03:33:40.264Z,10.00
2023-01-13T03:34:40.286Z,9.97
2023-01-13T03:35:40.266Z,9.97
2023-01-13T03:36:40.271Z,9.96
2023-01-13T03:37:40.322Z,9.97
2023-01-13T03:38:40.291Z,9.96
2023-01-13T03:39:40.224Z,9.91
2023-01-13T03:40:40.233Z,9.91
2023-01-13T03:41:40.224Z,9.89
2023-01-13T03:42:40.192Z,9.89
2023-01-13T03:43:40.191Z,9.86
2023-01-13T03:44:40.179Z,9.85
2023-01-13T03:45:40.177Z,9.82
2023-01-13T03:46:40.149Z,9.82
2023-01-13T03:47:40.130Z,9.82
2023-01-13T03:48:40.170Z,9.81
2023-01-13T03:49:40.095Z,9.81
2023-01-13T03:50:40.136Z,9.78
2023-01-13T03:51:40.065Z,9.79
2023-01-13T03:52:40.081Z,9.79
2023-01-13T03:53:40.059Z,9.79
2023-01-13T03:54:40.085Z,9.79
2023-01-13T03:55:40.036Z,9.78
2023-01-13T03:56:40.091Z,9.78
2023-01-13T03:57:40.050Z,9.78
2023-01-13T03:58:40.025Z,9.78
2023-01-13T03:59:39.988Z,9.75
2023-01-13T04:00:40.038Z,9.73
2023-01-13T04:01:41.037Z,9.71
2023-01-13T04:02:39.974Z,9.73
2023-01-13T04:03:39.991Z,9.73
2023-01-13T04:04:39.961Z,9.70
2023-01-13T04:05:39.916Z,9.71
2023-01-13T04:06:39.940Z,9.70
2023-01-13T04:07:39.896Z,9.68
2023-01-13T04:08:39.920Z,9.68
2023-01-13T04:09:39.868Z,9.67
2023-01-13T04:10:39.889Z,9.67
2023-01-13T04:11:39.880Z,9.67
2023-01-13T04:12:39.872Z,9.63
2023-01-13T04:13:39.822Z,9.58
2023-01-13T04:14:39.852Z,9.60
2023-01-13T04:15:39.828Z,9.58
2023-01-13T04:16:40.039Z,9.58
2023-01-13T04:17:39.783Z,9.56
2023-01-13T04:18:39.848Z,9.56
2023-01-13T04:19:39.760Z,9.56
2023-01-13T04:20:39.783Z,9.50
2023-01-13T04:21:39.752Z,9.49
2023-01-13T04:22:39.764Z,9.48
2023-01-13T04:23:40.672Z,9.40
2023-01-13T04:24:39.731Z,9.38
2023-01-13T04:25:39.721Z,9.35
2023-01-13T04:26:39.770Z,9.35
2023-01-13T04:27:39.701Z,9.34
2023-01-13T04:28:39.713Z,9.35
2023-01-13T04:29:39.700Z,9.35
2023-01-13T04:30:39.819Z,9.32
2023-01-13T04:31:39.649Z,9.31
2023-01-13T04:32:39.684Z,9.30
2023-01-13T04:33:39.659Z,9.30
2023-01-13T04:34:39.621Z,9.32
2023-01-13T04:35:39.618Z,9.34
2023-01-13T04:36:39.607Z,9.35
2023-01-13T04:37:39.598Z,9.35
2023-01-13T04:38:39.655Z,9.38
2023-01-13T04:39:39.580Z,9.38
2023-01-13T04:40:39.552Z,9.34
2023-01-13T04:41:39.536Z,9.31
2023-01-13T04:42:39.547Z,9.28
2023-01-13T04:43:39.489Z,9.25
2023-01-13T04:44:39.540Z,9.23
2023-01-13T04:45:40.476Z,9.24
2023-01-13T04:46:39.572Z,9.23
2023-01-13T04:47:39.457Z,9.18
2023-01-13T04:48:39.485Z,9.16
2023-01-13T04:49:39.436Z,9.16
2023-01-13T04:50:39.445Z,9.15
2023-01-13T04:51:39.412Z,9.12
2023-01-13T04:52:39.454Z,9.06
2023-01-13T04:53:39.425Z,9.04
2023-01-13T04:54:39.390Z,9.02
2023-01-13T04:55:39.376Z,9.01
2023-01-13T04:56:39.386Z,8.97
2023-01-13T04:57:39.389Z,8.93
2023-01-13T04:58:39.367Z,8.90
2023-01-13T04:59:40.271Z,8.88
2023-01-13T05:00:39.340Z,8.90
2023-01-13T05:01:39.434Z,8.90
2023-01-13T05:02:39.321Z,8.90
2023-01-13T05:03:39.293Z,8.90
2023-01-13T05:04:39.353Z,8.88
2023-01-13T05:05:39.259Z,8.88
2023-01-13T05:06:39.249Z,8.88
2023-01-13T05:07:39.233Z,8.87
2023-01-13T05:08:39.326Z,8.90
2023-01-13T05:09:39.269Z,8.90
2023-01-13T05:10:39.277Z,8.91
2023-01-13T05:11:39.201Z,8.93
2023-01-13T05:12:39.204Z,8.91
2023-01-13T05:13:39.235Z,8.90
2023-01-13T05:14:39.205Z,8.90
2023-01-13T05:15:39.154Z,8.88
2023-01-13T05:16:39.163Z,8.87
2023-01-13T05:17:39.136Z,8.86
2023-01-13T05:18:39.143Z,8.87
2023-01-13T05:19:39.109Z,8.87
2023-01-13T05:20:39.133Z,8.86
2023-01-13T05:21:39.070Z,8.86
2023-01-13T05:22:39.096Z,8.88
2023-01-13T05:23:39.076Z,8.83
2023-01-13T05:24:39.070Z,8.83
2023-01-13T05:25:39.041Z,8.81
2023-01-13T05:26:39.042Z,8.79
2023-01-13T05:27:39.034Z,8.79
2023-01-13T05:28:39.035Z,8.76
2023-01-13T05:29:39.032Z,8.78
2023-01-13T05:30:39.019Z,8.75
2023-01-13T05:31:39.076Z,8.75
2023-01-13T05:32:38.959Z,8.75
2023-01-13T05:33:38.972Z,8.75
2023-01-13T05:34:38.941Z,8.75
2023-01-13T05:35:38.987Z,8.73
2023-01-13T05:36:38.926Z,8.75
2023-01-13T05:37:38.930Z,8.72
2023-01-13T05:38:38.900Z,8.71
2023-01-13T05:39:38.930Z,8.69
2023-01-13T05:40:38.917Z,8.68
2023-01-13T05:41:38.884Z,8.69
2023-01-13T05:42:38.860Z,8.63
2023-01-13T05:43:38.879Z,8.62
2023-01-13T05:44:38.876Z,8.60
2023-01-13T05:45:38.850Z,8.60
2023-01-13T05:46:38.849Z,8.58
2023-01-13T05:47:38.870Z,8.58
2023-01-13T05:48:38.793Z,8.58
2023-01-13T05:49:40.406Z,8.55
2023-01-13T05:50:38.757Z,8.54
2023-01-13T05:51:38.832Z,8.54
2023-01-13T05:52:38.758Z,8.53
2023-01-13T05:53:38.751Z,8.50
2023-01-13T05:54:38.719Z,8.50
2023-01-13T05:55:38.735Z,8.50
2023-01-13T05:56:38.715Z,8.48
2023-01-13T05:57:38.707Z,8.47
2023-01-13T05:58:38.723Z,8.45
2023-01-13T05:59:38.675Z,8.44
2023-01-13T06:00:40.989Z,8.42
2023-01-13T06:01:38.661Z,8.44
2023-01-13T06:02:38.666Z,8.44
2023-01-13T06:03:38.664Z,8.42
2023-01-13T06:04:38.656Z,8.40
2023-01-13T06:05:38.642Z,8.39
2023-01-13T06:06:39.568Z,8.40
2023-01-13T06:07:38.591Z,8.39
2023-01-13T06:08:39.892Z,8.39
2023-01-13T06:09:38.578Z,8.36
2023-01-13T06:10:38.537Z,8.36
2023-01-13T06:11:38.576Z,8.35
2023-01-13T06:12:38.539Z,8.33
2023-01-13T06:13:38.532Z,8.30
2023-01-13T06:14:38.500Z,8.29
2023-01-13T06:15:38.535Z,8.32
2023-01-13T06:16:38.485Z,8.25
2023-01-13T06:17:38.495Z,8.25
2023-01-13T06:18:38.456Z,8.22
2023-01-13T06:19:38.486Z,8.21
2023-01-13T06:20:38.439Z,8.21
2023-01-13T06:21:38.467Z,8.20
2023-01-13T06:22:38.447Z,8.21
2023-01-13T06:23:38.430Z,8.21
2023-01-13T06:24:38.408Z,8.22
2023-01-13T06:25:38.405Z,8.21
2023-01-13T06:26:38.389Z,8.20
2023-01-13T06:27:38.379Z,8.21
2023-01-13T06:28:38.355Z,8.22
2023-01-13T06:29:38.359Z,8.21
2023-01-13T06:30:38.335Z,8.22
2023-01-13T06:31:38.390Z,8.25
2023-01-13T06:32:38.310Z,8.22
2023-01-13T06:33:38.323Z,8.21
2023-01-13T06:34:38.280Z,8.22
2023-01-13T06:35:38.304Z,8.22
2023-01-13T06:36:38.297Z,8.25
2023-01-13T06:37:38.302Z,8.22
2023-01-13T06:38:38.239Z,8.26
2023-01-13T06:39:38.267Z,8.25
2023-01-13T06:40:38.216Z,8.26
2023-01-13T06:41:38.235Z,8.28
2023-01-13T06:42:38.199Z,8.25
2023-01-13T06:43:38.200Z,8.28
2023-01-13T06:44:38.176Z,8.28
2023-01-13T06:45:38.202Z,8.28
2023-01-13T06:46:38.204Z,8.28
2023-01-13T06:47:38.179Z,8.26
2023-01-13T06:48:38.125Z,8.26
2023-01-13T06:49:38.154Z,8.26
2023-01-13T06:50:38.090Z,8.25
2023-01-13T06:51:38.137Z,8.25
2023-01-13T06:52:39.052Z,8.25
2023-01-13T06:53:38.092Z,8.22
2023-01-13T06:54:38.107Z,8.26
2023-01-13T06:55:38.080Z,8.22
2023-01-13T06:56:38.041Z,8.22
2023-01-13T06:57:38.060Z,8.21
2023-01-13T06:58:38.036Z,8.22
2023-01-13T06:59:38.024Z,8.20
2023-01-13T07:00:38.111Z,8.21
2023-01-13T07:01:38.255Z,8.20
2023-01-13T07:02:38.065Z,8.18
2023-01-13T07:03:37.983Z,8.18
2023-01-13T07:04:37.971Z,8.18
2023-01-13T07:05:37.963Z,8.17
2023-01-13T07:06:37.934Z,8.17
2023-01-13T07:07:37.969Z,8.20
2023-01-13T07:08:37.909Z,8.20
2023-01-13T07:09:37.928Z,8.21
2023-01-13T07:10:37.905Z,8.21
2023-01-13T07:11:37.949Z,8.21
2023-01-13T07:12:37.870Z,8.21
2023-01-13T07:13:37.894Z,8.22
2023-01-13T07:14:37.841Z,8.21
2023-01-13T07:15:37.873Z,8.21
2023-01-13T07:16:37.971Z,8.20
2023-01-13T07:17:37.835Z,8.18
2023-01-13T07:18:37.807Z,8.20
2023-01-13T07:19:37.818Z,8.20
2023-01-13T07:20:37.778Z,8.20
2023-01-13T07:21:37.816Z,8.18
2023-01-13T07:22:37.736Z,8.14
2023-01-13T07:23:37.784Z,8.14
2023-01-13T07:24:38.708Z,8.12
2023-01-13T07:25:37.757Z,8.14
2023-01-13T07:26:37.713Z,8.12
2023-01-13T07:27:37.721Z,8.07
2023-01-13T07:28:37.708Z,8.07
2023-01-13T07:29:37.694Z,8.04
2023-01-13T07:30:37.672Z,8.07
2023-01-13T07:31:37.702Z,8.07
2023-01-13T07:32:37.655Z,8.04
2023-01-13T07:33:37.645Z,8.03
2023-01-13T07:34:37.629Z,8.03
2023-01-13T07:35:37.630Z,8.04
2023-01-13T07:36:37.607Z,8.03
2023-01-13T07:37:37.638Z,8.02
2023-01-13T07:38:38.584Z,8.04
2023-01-13T07:39:37.606Z,8.03
2023-01-13T07:40:37.550Z,8.02
2023-01-13T07:41:37.599Z,8.00
2023-01-13T07:42:37.551Z,8.00
2023-01-13T07:43:37.554Z,7.99
2023-01-13T07:44:37.510Z,7.99
2023-01-13T07:45:37.554Z,8.00
2023-01-13T07:46:37.551Z,8.02
2023-01-13T07:47:37.498Z,8.02
2023-01-13T07:48:37.515Z,8.00
2023-01-13T07:49:37.477Z,8.00
2023-01-13T07:50:37.437Z,8.02
2023-01-13T07:51:37.451Z,8.03
2023-01-13T07:52:38.390Z,8.03
2023-01-13T07:53:37.446Z,8.03
2023-01-13T07:54:41.106Z,8.04
2023-01-13T07:55:37.436Z,8.07
2023-01-13T07:56:37.376Z,8.08
2023-01-13T07:57:37.417Z,8.10
2023-01-13T07:58:37.378Z,8.11
2023-01-13T07:59:37.396Z,8.14
2023-01-13T08:00:37.356Z,8.14
2023-01-13T08:01:37.519Z,8.15
2023-01-13T08:02:37.350Z,8.14
2023-01-13T08:03:37.351Z,8.14
2023-01-13T08:04:37.304Z,8.12
2023-01-13T08:05:37.334Z,8.17
2023-01-13T08:06:37.347Z,8.17
2023-01-13T08:07:37.314Z,8.20
2023-01-13T08:08:37.320Z,8.21
2023-01-13T08:09:37.305Z,8.22
2023-01-13T08:10:37.238Z,8.22
2023-01-13T08:11:37.234Z,8.22
2023-01-13T08:12:37.196Z,8.21
2023-01-13T08:13:37.208Z,8.22
2023-01-13T08:14:37.214Z,8.25
2023-01-13T08:15:37.196Z,8.25
2023-01-13T08:16:37.223Z,8.22
2023-01-13T08:17:37.187Z,8.25
2023-01-13T08:18:37.165Z,8.25
2023-01-13T08:19:37.149Z,8.28
2023-01-13T08:20:37.168Z,8.29
2023-01-13T08:21:37.142Z,8.29
2023-01-13T08:22:37.136Z,8.26
2023-01-13T08:23:37.102Z,8.29
2023-01-13T08:24:37.059Z,8.29
2023-01-13T08:25:37.083Z,8.29
2023-01-13T08:26:37.062Z,8.32
2023-01-13T08:27:37.048Z,8.32
2023-01-13T08:28:38.046Z,8.30
2023-01-13T08:29:37.047Z,8.29
2023-01-13T08:30:37.036Z,8.30
2023-01-13T08:31:37.037Z,8.29
2023-01-13T08:32:36.970Z,8.26
2023-01-13T08:33:37.038Z,8.26
2023-01-13T08:34:36.948Z,8.25
2023-01-13T08:35:36.984Z,8.26
2023-01-13T08:36:36.953Z,8.29
2023-01-13T08:37:36.955Z,8.33
2023-01-13T08:38:36.908Z,8.39
2023-01-13T08:39:36.924Z,8.40
2023-01-13T08:40:36.904Z,8.44
2023-01-13T08:41:36.912Z,8.45
2023-01-13T08:42:36.877Z,8.48
2023-01-13T08:43:36.884Z,8.50
2023-01-13T08:44:36.845Z,8.51
2023-01-13T08:45:36.878Z,8.57
2023-01-13T08:46:36.824Z,8.62
2023-01-13T08:47:36.858Z,8.66
2023-01-13T08:48:36.807Z,8.68
2023-01-13T08:49:37.771Z,8.69
2023-01-13T08:50:36.772Z,8.72
2023-01-13T08:51:36.803Z,8.76
2023-01-13T08:52:36.797Z,8.81
2023-01-13T08:53:36.776Z,8.86
2023-01-13T08:54:36.762Z,8.88
2023-01-13T08:55:36.760Z,8.90
2023-01-13T08:56:36.748Z,8.93
2023-01-13T08:57:36.765Z,8.97
2023-01-13T08:58:36.710Z,8.96
2023-01-13T08:59:36.702Z,9.01
2023-01-13T09:00:36.660Z,9.02
2023-01-13T09:01:36.805Z,9.04
2023-01-13T09:02:36.661Z,9.06
2023-01-13T09:03:36.673Z,9.05
2023-01-13T09:04:36.709Z,9.10
2023-01-13T09:05:36.669Z,9.13
2023-01-13T09:06:36.632Z,9.12
2023-01-13T09:07:36.629Z,9.15
2023-01-13T09:08:36.632Z,9.10
2023-01-13T09:09:36.648Z,9.12
2023-01-13T09:10:36.546Z,9.16
2023-01-13T09:11:36.623Z,9.18
2023-01-13T09:12:36.550Z,9.21
2023-01-13T09:13:36.616Z,9.24
2023-01-13T09:14:36.630Z,9.27
2023-01-13T09:15:36.592Z,9.28
2023-01-13T09:16:36.492Z,9.30
2023-01-13T09:17:37.448Z,9.30
2023-01-13T09:18:36.476Z,9.31
2023-01-13T09:19:36.488Z,9.34
2023-01-13T09:20:36.465Z,9.35
2023-01-13T09:21:36.455Z,9.39
2023-01-13T09:22:36.438Z,9.42
2023-01-13T09:23:36.437Z,9.40
2023-01-13T09:24:36.420Z,9.42
2023-01-13T09:25:36.417Z,9.43
2023-01-13T09:26:36.388Z,9.48
2023-01-13T09:27:36.456Z,9.46
2023-01-13T09:28:36.357Z,9.43
2023-01-13T09:29:36.390Z,9.49
2023-01-13T09:30:36.342Z,9.48
2023-01-13T09:31:36.367Z,9.52
2023-01-13T09:32:36.314Z,9.52
2023-01-13T09:33:36.332Z,9.49
2023-01-13T09:34:36.301Z,9.57
2023-01-13T09:35:36.305Z,9.64
2023-01-13T09:36:36.275Z,9.63
2023-01-13T09:37:36.283Z,9.67
2023-01-13T09:38:36.276Z,9.71
2023-01-13T09:39:36.284Z,9.73
2023-01-13T09:40:36.233Z,9.73
2023-01-13T09:41:36.244Z,9.70
2023-01-13T09:42:36.224Z,9.73
2023-01-13T09:43:36.224Z,9.67
2023-01-13T09:44:36.174Z,9.66
2023-01-13T09:45:36.183Z,9.64
2023-01-13T09:46:36.333Z,9.64
2023-01-13T09:47:36.177Z,9.61
2023-01-13T09:48:36.162Z,9.67
2023-01-13T09:49:36.120Z,9.63
2023-01-13T09:50:36.136Z,9.57
2023-01-13T09:51:36.169Z,9.56
2023-01-13T09:52:36.140Z,9.50
2023-01-13T09:53:36.086Z,9.49
2023-01-13T09:54:36.102Z,9.48
2023-01-13T09:55:36.066Z,9.46
2023-01-13T09:56:36.099Z,9.43
2023-01-13T09:57:36.029Z,9.42
2023-01-13T09:58:36.074Z,9.39
2023-01-13T09:59:36.031Z,9.34
2023-01-13T10:00:36.058Z,9.35
2023-01-13T10:01:36.004Z,9.31
2023-01-13T10:02:36.047Z,9.28
2023-01-13T10:03:36.097Z,9.30
2023-01-13T10:04:36.053Z,9.28
2023-01-13T10:05:35.973Z,9.30
2023-01-13T10:06:35.984Z,9.30
2023-01-13T10:07:35.942Z,9.32
2023-01-13T10:08:35.971Z,9.32
2023-01-13T10:09:35.911Z,9.31
2023-01-13T10:10:35.936Z,9.30
2023-01-13T10:11:35.891Z,9.31
2023-01-13T10:12:35.918Z,9.34
2023-01-13T10:13:35.875Z,9.35
2023-01-13T10:14:35.880Z,9.35
2023-01-13T10:15:36.038Z,9.34
2023-01-13T10:16:35.903Z,9.34
2023-01-13T10:17:35.912Z,9.34
2023-01-13T10:18:35.853Z,9.38
2023-01-13T10:19:35.829Z,9.35
2023-01-13T10:20:35.835Z,9.38
2023-01-13T10:21:35.777Z,9.39
2023-01-13T10:22:35.819Z,9.43
2023-01-13T10:23:35.778Z,9.45
2023-01-13T10:24:35.769Z,9.45
2023-01-13T10:25:35.767Z,9.45
2023-01-13T10:26:35.754Z,9.48
2023-01-13T10:27:35.762Z,9.49
2023-01-13T10:28:35.732Z,9.48
2023-01-13T10:29:35.715Z,9.49
2023-01-13T10:30:35.697Z,9.52
2023-01-13T10:31:35.738Z,9.53
2023-01-13T10:32:35.684Z,9.56
2023-01-13T10:33:35.650Z,9.57
2023-01-13T10:34:35.667Z,9.60
2023-01-13T10:35:35.625Z,9.58
2023-01-13T10:36:35.665Z,9.58
2023-01-13T10:37:35.624Z,9.61
2023-01-13T10:38:35.618Z,9.66
2023-01-13T10:39:35.593Z,9.66
2023-01-13T10:40:35.621Z,9.68
2023-01-13T10:41:35.572Z,9.71
2023-01-13T10:42:35.573Z,9.71
2023-01-13T10:43:35.532Z,9.73
2023-01-13T10:44:35.570Z,9.75
2023-01-13T10:45:35.509Z,9.71
2023-01-13T10:46:35.592Z,9.73
2023-01-13T10:47:35.513Z,9.73
2023-01-13T10:48:35.679Z,9.78
2023-01-13T10:49:35.481Z,9.78
2023-01-13T10:50:35.516Z,9.78
2023-01-13T10:51:35.451Z,9.79
2023-01-13T10:52:35.556Z,9.79
2023-01-13T10:53:35.428Z,9.79
2023-01-13T10:54:35.461Z,9.81
2023-01-13T10:55:35.445Z,9.79
2023-01-13T10:56:35.428Z,9.78
2023-01-13T10:57:35.410Z,9.78
2023-01-13T10:58:35.422Z,9.75
2023-01-13T10:59:35.368Z,9.75
2023-01-13T11:00:35.388Z,9.75
2023-01-13T11:01:35.448Z,9.73
2023-01-13T11:02:35.424Z,9.73
2023-01-13T11:03:35.312Z,9.75
2023-01-13T11:04:35.403Z,9.81
2023-01-13T11:05:35.359Z,9.81
2023-01-13T11:06:35.309Z,9.85
2023-01-13T11:07:35.278Z,9.88
2023-01-13T11:08:35.284Z,9.89
2023-01-13T11:09:35.276Z,9.91
2023-01-13T11:10:35.271Z,9.97
2023-01-13T11:11:35.237Z,9.99
2023-01-13T11:12:35.280Z,9.96
2023-01-13T11:13:35.213Z,9.93
2023-01-13T11:14:35.241Z,9.91
2023-01-13T11:15:35.214Z,9.86
2023-01-13T11:16:35.200Z,9.85
2023-01-13T11:17:35.175Z,9.88
2023-01-13T11:18:35.210Z,9.86
2023-01-13T11:19:37.853Z,9.86
2023-01-13T11:20:35.169Z,9.88
2023-01-13T11:21:35.116Z,9.88
2023-01-13T11:22:35.154Z,9.89
2023-01-13T11:23:35.108Z,9.91
2023-01-13T11:24:35.115Z,9.93
2023-01-13T11:25:35.113Z,9.89
2023-01-13T11:26:35.104Z,9.89
2023-01-13T11:27:36.027Z,9.85
2023-01-13T11:28:35.060Z,9.82
2023-01-13T11:29:35.054Z,9.81
2023-01-13T11:30:35.048Z,9.78
2023-01-13T11:31:35.056Z,9.79
2023-01-13T11:32:35.050Z,9.75
2023-01-13T11:33:34.999Z,9.71
2023-01-13T11:34:35.011Z,9.68
2023-01-13T11:35:34.961Z,9.67
2023-01-13T11:36:34.979Z,9.64
2023-01-13T11:37:34.988Z,9.61
2023-01-13T11:38:34.962Z,9.58
2023-01-13T11:39:34.952Z,9.58
2023-01-13T11:40:34.932Z,9.58
2023-01-13T11:41:34.914Z,9.58
2023-01-13T11:42:36.625Z,9.61
2023-01-13T11:43:34.913Z,9.61
2023-01-13T11:44:34.898Z,9.58
2023-01-13T11:45:34.860Z,9.58
2023-01-13T11:46:34.976Z,9.53
2023-01-13T11:47:34.834Z,9.52
2023-01-13T11:48:34.839Z,9.48
2023-01-13T11:49:34.821Z,9.45
2023-01-13T11:50:34.868Z,9.43
2023-01-13T11:51:34.804Z,9.42
2023-01-13T11:52:34.822Z,9.38
2023-01-13T11:53:34.798Z,9.38
2023-01-13T11:54:34.781Z,9.38
2023-01-13T11:55:34.792Z,9.28
2023-01-13T11:56:34.770Z,9.24
2023-01-13T11:57:34.721Z,9.21
2023-01-13T11:58:49.433Z,9.16
2023-01-13T11:59:35.719Z,9.15
2023-01-13T12:00:34.735Z,9.15
2023-01-13T12:01:34.715Z,9.18
2023-01-13T12:02:34.680Z,9.24
2023-01-13T12:03:34.679Z,9.25
2023-01-13T12:04:34.676Z,9.30
2023-01-13T12:05:34.637Z,9.32
2023-01-13T12:06:34.657Z,9.34
2023-01-13T12:07:34.621Z,9.35
2023-01-13T12:08:34.657Z,9.40
2023-01-13T12:09:34.649Z,9.42
2023-01-13T12:10:34.603Z,9.45
2023-01-13T12:11:34.600Z,9.48
2023-01-13T12:12:34.618Z,9.49
2023-01-13T12:13:34.550Z,9.56
2023-01-13T12:14:34.585Z,9.53
2023-01-13T12:15:34.545Z,9.50
2023-01-13T12:16:34.621Z,9.50
2023-01-13T12:17:34.504Z,9.52
2023-01-13T12:18:34.520Z,9.57
2023-01-13T12:19:34.472Z,9.58
2023-01-13T12:20:35.464Z,9.58
2023-01-13T12:21:34.451Z,9.61
2023-01-13T12:22:36.033Z,9.61
2023-01-13T12:23:34.436Z,9.63
2023-01-13T12:24:34.460Z,9.63
2023-01-13T12:25:34.407Z,9.64
2023-01-13T12:26:34.412Z,9.66
2023-01-13T12:27:34.400Z,9.64
2023-01-13T12:28:34.473Z,9.66
2023-01-13T12:29:34.386Z,9.64
2023-01-13T12:30:34.400Z,9.64
2023-01-13T12:31:34.407Z,9.60
2023-01-13T12:32:34.373Z,9.60
2023-01-13T12:33:34.352Z,9.61
2023-01-13T12:34:34.336Z,9.61
2023-01-13T12:35:34.303Z,9.63
2023-01-13T12:36:34.332Z,9.63
2023-01-13T12:37:34.295Z,9.70
2023-01-13T12:38:34.545Z,9.68
2023-01-13T12:39:34.253Z,9.63
2023-01-13T12:40:34.290Z,9.66
2023-01-13T12:41:34.271Z,9.66
2023-01-13T12:42:34.289Z,9.63
2023-01-13T12:43:34.234Z,9.63
2023-01-13T12:44:34.219Z,9.61
2023-01-13T12:45:34.271Z,9.61
2023-01-13T12:46:34.231Z,9.60
2023-01-13T12:47:34.179Z,9.63
2023-01-13T12:48:34.172Z,9.64
2023-01-13T12:49:34.191Z,9.64
2023-01-13T12:50:34.168Z,9.64
2023-01-13T12:51:35.204Z,9.64
2023-01-13T12:52:34.131Z,9.63
2023-01-13T12:53:34.117Z,9.63
2023-01-13T12:54:34.130Z,9.63
2023-01-13T12:55:34.104Z,9.66
2023-01-13T12:56:36.270Z,9.66
2023-01-13T12:57:34.067Z,9.64
2023-01-13T12:58:34.074Z,9.63
2023-01-13T12:59:34.055Z,9.61
2023-01-13T13:00:34.072Z,9.63
2023-01-13T13:01:34.181Z,9.66
2023-01-13T13:02:34.047Z,9.68
2023-01-13T13:03:33.996Z,9.64
2023-01-13T13:04:34.018Z,9.58
2023-01-13T13:05:33.987Z,9.53
2023-01-13T13:06:34.003Z,9.50
2023-01-13T13:07:33.948Z,9.46
2023-01-13T13:08:33.956Z,9.46
2023-01-13T13:09:33.976Z,9.45
2023-01-13T13:10:33.962Z,9.49
2023-01-13T13:11:33.939Z,9.48